sensor_id;sensor_type;location;lat;lon;timestamp;P1;durP1;ratioP1;P2;durP2;ratioP2
6979;SDS011;3530;52.832;10.680;2023-05-20T00:00:02;1.00;;;1.00;;
6979;SDS011;3530;52.832;10.680;2023-05-20T00:02:48;1.15;;;1.15;;
6979;SDS011;3530;52.832;10.680;2023-05-20T00:05:33;1.50;;;1.40;;
6979;SDS011;3530;52.832;10.680;2023-05-20T00:08:19;1.48;;;1.40;;
6979;SDS011;3530;52.832;10.680;2023-05-20T00:11:05;1.10;;;1.10;;
6979;SDS011;3530;52.832;10.680;2023-05-20T00:13:50;1.40;;;1.30;;
6979;SDS011;3530;52.832;10.680;2023-05-20T00:16:36;3.28;;;1.30;;
6979;SDS011;3530;52.832;10.680;2023-05-20T00:19:22;1.20;;;1.20;;
6979;SDS011;3530;52.832;10.680;2023-05-20T00:22:07;1.50;;;1.40;;
6979;SDS011;3530;52.832;10.680;2023-05-20T00:24:53;1.42;;;1.27;;
6979;SDS011;3530;52.832;10.680;2023-05-20T00:27:39;1.40;;;1.33;;
6979;SDS011;3530;52.832;10.680;2023-05-20T00:30:25;1.30;;;1.30;;
6979;SDS011;3530;52.832;10.680;2023-05-20T00:33:11;1.40;;;1.40;;
6979;SDS011;3530;52.832;10.680;2023-05-20T00:35:57;1.20;;;1.20;;
6979;SDS011;3530;52.832;10.680;2023-05-20T00:38:42;1.40;;;1.30;;
6979;SDS011;3530;52.832;10.680;2023-05-20T00:41:28;1.27;;;1.27;;
6979;SDS011;3530;52.832;10.680;2023-05-20T00:44:13;1.00;;;1.00;;
6979;SDS011;3530;52.832;10.680;2023-05-20T00:46:59;1.35;;;1.35;;
6979;SDS011;3530;52.832;10.680;2023-05-20T00:49:46;3.17;;;1.40;;
6979;SDS011;3530;52.832;10.680;2023-05-20T00:52:33;1.50;;;1.40;;
6979;SDS011;3530;52.832;10.680;2023-05-20T00:55:19;1.30;;;1.25;;
6979;SDS011;3530;52.832;10.680;2023-05-20T00:58:05;1.30;;;1.20;;
6979;SDS011;3530;52.832;10.680;2023-05-20T01:00:51;1.50;;;1.20;;
6979;SDS011;3530;52.832;10.680;2023-05-20T01:03:37;1.52;;;1.50;;
6979;SDS011;3530;52.832;10.680;2023-05-20T01:06:23;1.48;;;1.38;;
6979;SDS011;3530;52.832;10.680;2023-05-20T01:09:08;1.92;;;1.38;;
6979;SDS011;3530;52.832;10.680;2023-05-20T01:11:55;1.67;;;1.58;;
6979;SDS011;3530;52.832;10.680;2023-05-20T01:14:50;1.25;;;1.25;;
6979;SDS011;3530;52.832;10.680;2023-05-20T01:17:49;1.10;;;1.10;;
6979;SDS011;3530;52.832;10.680;2023-05-20T01:20:35;2.22;;;1.25;;
6979;SDS011;3530;52.832;10.680;2023-05-20T01:23:22;1.27;;;1.27;;
6979;SDS011;3530;52.832;10.680;2023-05-20T01:26:08;1.30;;;1.30;;
6979;SDS011;3530;52.832;10.680;2023-05-20T01:28:57;2.53;;;1.30;;
6979;SDS011;3530;52.832;10.680;2023-05-20T01:31:48;0.93;;;0.93;;
6979;SDS011;3530;52.832;10.680;2023-05-20T01:34:35;1.30;;;1.30;;
6979;SDS011;3530;52.832;10.680;2023-05-20T01:37:21;1.35;;;1.35;;
6979;SDS011;3530;52.832;10.680;2023-05-20T01:40:08;1.48;;;1.38;;
6979;SDS011;3530;52.832;10.680;2023-05-20T01:42:54;1.60;;;1.50;;
6979;SDS011;3530;52.832;10.680;2023-05-20T01:45:40;1.30;;;1.20;;
6979;SDS011;3530;52.832;10.680;2023-05-20T01:48:26;1.30;;;1.20;;
6979;SDS011;3530;52.832;10.680;2023-05-20T01:51:12;1.23;;;1.23;;
6979;SDS011;3530;52.832;10.680;2023-05-20T01:53:57;1.50;;;1.40;;
6979;SDS011;3530;52.832;10.680;2023-05-20T01:56:44;1.40;;;1.30;;
6979;SDS011;3530;52.832;10.680;2023-05-20T01:59:30;1.42;;;1.33;;
6979;SDS011;3530;52.832;10.680;2023-05-20T02:02:16;1.40;;;1.40;;
6979;SDS011;3530;52.832;10.680;2023-05-20T02:05:02;3.60;;;1.40;;
6979;SDS011;3530;52.832;10.680;2023-05-20T02:07:47;1.60;;;1.23;;
6979;SDS011;3530;52.832;10.680;2023-05-20T02:10:33;1.67;;;1.42;;
6979;SDS011;3530;52.832;10.680;2023-05-20T02:13:19;1.30;;;1.30;;
6979;SDS011;3530;52.832;10.680;2023-05-20T02:16:04;1.30;;;1.30;;
6979;SDS011;3530;52.832;10.680;2023-05-20T02:18:50;2.15;;;1.85;;
6979;SDS011;3530;52.832;10.680;2023-05-20T02:21:40;1.45;;;1.42;;
6979;SDS011;3530;52.832;10.680;2023-05-20T02:24:26;1.58;;;1.30;;
6979;SDS011;3530;52.832;10.680;2023-05-20T02:27:12;1.50;;;1.50;;
6979;SDS011;3530;52.832;10.680;2023-05-20T02:29:58;1.83;;;1.60;;
6979;SDS011;3530;52.832;10.680;2023-05-20T02:32:44;2.05;;;1.45;;
6979;SDS011;3530;52.832;10.680;2023-05-20T02:35:30;1.40;;;1.40;;
6979;SDS011;3530;52.832;10.680;2023-05-20T02:38:15;1.42;;;1.42;;
6979;SDS011;3530;52.832;10.680;2023-05-20T02:41:01;1.70;;;1.55;;
6979;SDS011;3530;52.832;10.680;2023-05-20T02:43:48;1.67;;;1.58;;
6979;SDS011;3530;52.832;10.680;2023-05-20T02:46:34;1.50;;;1.40;;
6979;SDS011;3530;52.832;10.680;2023-05-20T02:49:20;1.92;;;1.58;;
6979;SDS011;3530;52.832;10.680;2023-05-20T02:52:05;1.38;;;1.33;;
6979;SDS011;3530;52.832;10.680;2023-05-20T02:54:53;1.30;;;1.30;;
6979;SDS011;3530;52.832;10.680;2023-05-20T02:57:38;1.60;;;1.50;;
6979;SDS011;3530;52.832;10.680;2023-05-20T03:00:24;1.52;;;1.42;;
6979;SDS011;3530;52.832;10.680;2023-05-20T03:03:12;2.53;;;2.33;;
6979;SDS011;3530;52.832;10.680;2023-05-20T03:05:59;4.75;;;1.67;;
6979;SDS011;3530;52.832;10.680;2023-05-20T03:08:44;1.48;;;1.48;;
6979;SDS011;3530;52.832;10.680;2023-05-20T03:11:30;1.52;;;1.52;;
6979;SDS011;3530;52.832;10.680;2023-05-20T03:14:16;1.70;;;1.60;;
6979;SDS011;3530;52.832;10.680;2023-05-20T03:17:01;5.32;;;1.85;;
6979;SDS011;3530;52.832;10.680;2023-05-20T03:19:47;1.52;;;1.42;;
6979;SDS011;3530;52.832;10.680;2023-05-20T03:22:32;1.60;;;1.50;;
6979;SDS011;3530;52.832;10.680;2023-05-20T03:25:18;1.75;;;1.65;;
6979;SDS011;3530;52.832;10.680;2023-05-20T03:28:04;2.60;;;1.50;;
6979;SDS011;3530;52.832;10.680;2023-05-20T03:30:50;1.60;;;1.50;;
6979;SDS011;3530;52.832;10.680;2023-05-20T03:33:36;4.38;;;1.63;;
6979;SDS011;3530;52.832;10.680;2023-05-20T03:36:22;1.90;;;1.70;;
6979;SDS011;3530;52.832;10.680;2023-05-20T03:39:07;1.83;;;1.65;;
6979;SDS011;3530;52.832;10.680;2023-05-20T03:41:53;1.50;;;1.50;;
6979;SDS011;3530;52.832;10.680;2023-05-20T03:44:39;1.67;;;1.58;;
6979;SDS011;3530;52.832;10.680;2023-05-20T03:47:25;3.80;;;2.00;;
6979;SDS011;3530;52.832;10.680;2023-05-20T03:50:11;1.50;;;1.40;;
6979;SDS011;3530;52.832;10.680;2023-05-20T03:52:57;1.80;;;1.70;;
6979;SDS011;3530;52.832;10.680;2023-05-20T03:55:42;1.83;;;1.48;;
6979;SDS011;3530;52.832;10.680;2023-05-20T03:58:28;2.70;;;1.85;;
6979;SDS011;3530;52.832;10.680;2023-05-20T04:01:15;4.15;;;1.55;;
6979;SDS011;3530;52.832;10.680;2023-05-20T04:04:01;2.95;;;1.70;;
6979;SDS011;3530;52.832;10.680;2023-05-20T04:06:47;1.70;;;1.60;;
6979;SDS011;3530;52.832;10.680;2023-05-20T04:09:32;3.33;;;1.60;;
6979;SDS011;3530;52.832;10.680;2023-05-20T04:12:18;1.42;;;1.35;;
6979;SDS011;3530;52.832;10.680;2023-05-20T04:15:05;1.52;;;1.50;;
6979;SDS011;3530;52.832;10.680;2023-05-20T04:17:51;2.15;;;1.70;;
6979;SDS011;3530;52.832;10.680;2023-05-20T04:20:36;2.45;;;1.33;;
6979;SDS011;3530;52.832;10.680;2023-05-20T04:23:22;2.00;;;1.90;;
6979;SDS011;3530;52.832;10.680;2023-05-20T04:26:08;1.95;;;1.92;;
6979;SDS011;3530;52.832;10.680;2023-05-20T04:28:54;1.70;;;1.60;;
6979;SDS011;3530;52.832;10.680;2023-05-20T04:31:46;2.75;;;1.70;;
6979;SDS011;3530;52.832;10.680;2023-05-20T04:34:31;2.10;;;1.90;;
6979;SDS011;3530;52.832;10.680;2023-05-20T04:37:21;1.60;;;1.48;;
6979;SDS011;3530;52.832;10.680;2023-05-20T04:40:07;2.03;;;1.65;;
6979;SDS011;3530;52.832;10.680;2023-05-20T04:42:53;2.45;;;1.73;;
6979;SDS011;3530;52.832;10.680;2023-05-20T04:45:40;2.15;;;1.95;;
6979;SDS011;3530;52.832;10.680;2023-05-20T04:48:26;3.63;;;1.85;;
6979;SDS011;3530;52.832;10.680;2023-05-20T04:51:12;1.70;;;1.60;;
6979;SDS011;3530;52.832;10.680;2023-05-20T04:53:57;2.15;;;1.98;;
6979;SDS011;3530;52.832;10.680;2023-05-20T04:56:43;2.05;;;1.85;;
6979;SDS011;3530;52.832;10.680;2023-05-20T04:59:29;1.95;;;1.85;;
6979;SDS011;3530;52.832;10.680;2023-05-20T05:02:15;4.25;;;2.03;;
6979;SDS011;3530;52.832;10.680;2023-05-20T05:05:01;1.92;;;1.80;;
6979;SDS011;3530;52.832;10.680;2023-05-20T05:07:46;1.83;;;1.75;;
6979;SDS011;3530;52.832;10.680;2023-05-20T05:10:32;2.53;;;1.70;;
6979;SDS011;3530;52.832;10.680;2023-05-20T05:13:17;2.03;;;1.88;;
6979;SDS011;3530;52.832;10.680;2023-05-20T05:16:03;4.40;;;2.90;;
6979;SDS011;3530;52.832;10.680;2023-05-20T05:18:49;2.80;;;2.35;;
6979;SDS011;3530;52.832;10.680;2023-05-20T05:21:35;3.80;;;2.25;;
6979;SDS011;3530;52.832;10.680;2023-05-20T05:24:20;4.05;;;2.05;;
6979;SDS011;3530;52.832;10.680;2023-05-20T05:27:06;2.45;;;2.00;;
6979;SDS011;3530;52.832;10.680;2023-05-20T05:29:52;2.03;;;1.92;;
6979;SDS011;3530;52.832;10.680;2023-05-20T05:32:37;2.35;;;2.05;;
6979;SDS011;3530;52.832;10.680;2023-05-20T05:35:23;2.38;;;1.98;;
6979;SDS011;3530;52.832;10.680;2023-05-20T05:38:09;2.67;;;2.45;;
6979;SDS011;3530;52.832;10.680;2023-05-20T05:40:54;2.42;;;2.20;;
6979;SDS011;3530;52.832;10.680;2023-05-20T05:43:40;2.72;;;2.40;;
6979;SDS011;3530;52.832;10.680;2023-05-20T05:46:26;2.30;;;2.20;;
6979;SDS011;3530;52.832;10.680;2023-05-20T05:49:11;2.45;;;2.00;;
6979;SDS011;3530;52.832;10.680;2023-05-20T05:51:57;2.88;;;2.08;;
6979;SDS011;3530;52.832;10.680;2023-05-20T05:54:43;3.08;;;2.30;;
6979;SDS011;3530;52.832;10.680;2023-05-20T05:57:28;3.55;;;2.20;;
6979;SDS011;3530;52.832;10.680;2023-05-20T06:00:14;3.63;;;1.90;;
6979;SDS011;3530;52.832;10.680;2023-05-20T06:03:00;2.00;;;1.90;;
6979;SDS011;3530;52.832;10.680;2023-05-20T06:05:45;2.25;;;2.15;;
6979;SDS011;3530;52.832;10.680;2023-05-20T06:08:31;2.28;;;2.10;;
6979;SDS011;3530;52.832;10.680;2023-05-20T06:11:17;2.60;;;2.40;;
6979;SDS011;3530;52.832;10.680;2023-05-20T06:14:03;2.40;;;2.20;;
6979;SDS011;3530;52.832;10.680;2023-05-20T06:16:48;3.08;;;2.35;;
6979;SDS011;3530;52.832;10.680;2023-05-20T06:19:34;2.63;;;2.45;;
6979;SDS011;3530;52.832;10.680;2023-05-20T06:22:20;2.50;;;2.10;;
6979;SDS011;3530;52.832;10.680;2023-05-20T06:25:05;3.10;;;2.50;;
6979;SDS011;3530;52.832;10.680;2023-05-20T06:27:51;2.40;;;2.20;;
6979;SDS011;3530;52.832;10.680;2023-05-20T06:30:37;3.50;;;2.85;;
6979;SDS011;3530;52.832;10.680;2023-05-20T06:33:23;4.30;;;2.88;;
6979;SDS011;3530;52.832;10.680;2023-05-20T06:36:12;6.10;;;2.30;;
6979;SDS011;3530;52.832;10.680;2023-05-20T06:38:58;2.90;;;2.65;;
6979;SDS011;3530;52.832;10.680;2023-05-20T06:41:44;3.25;;;2.60;;
6979;SDS011;3530;52.832;10.680;2023-05-20T06:44:30;2.58;;;2.38;;
6979;SDS011;3530;52.832;10.680;2023-05-20T06:47:16;2.50;;;2.30;;
6979;SDS011;3530;52.832;10.680;2023-05-20T06:50:02;2.35;;;2.25;;
6979;SDS011;3530;52.832;10.680;2023-05-20T06:52:48;2.65;;;2.42;;
6979;SDS011;3530;52.832;10.680;2023-05-20T06:55:33;3.20;;;2.90;;
6979;SDS011;3530;52.832;10.680;2023-05-20T06:58:19;3.50;;;2.85;;
6979;SDS011;3530;52.832;10.680;2023-05-20T07:01:05;4.05;;;2.15;;
6979;SDS011;3530;52.832;10.680;2023-05-20T07:03:50;3.80;;;2.33;;
6979;SDS011;3530;52.832;10.680;2023-05-20T07:06:36;2.10;;;2.00;;
6979;SDS011;3530;52.832;10.680;2023-05-20T07:09:21;4.53;;;3.10;;
6979;SDS011;3530;52.832;10.680;2023-05-20T07:12:07;3.42;;;2.13;;
6979;SDS011;3530;52.832;10.680;2023-05-20T07:14:53;2.80;;;2.38;;
6979;SDS011;3530;52.832;10.680;2023-05-20T07:17:39;2.53;;;2.30;;
6979;SDS011;3530;52.832;10.680;2023-05-20T07:20:25;2.10;;;2.00;;
6979;SDS011;3530;52.832;10.680;2023-05-20T07:23:10;2.35;;;2.20;;
6979;SDS011;3530;52.832;10.680;2023-05-20T07:25:56;2.30;;;1.90;;
6979;SDS011;3530;52.832;10.680;2023-05-20T07:28:41;2.30;;;2.10;;
6979;SDS011;3530;52.832;10.680;2023-05-20T07:31:28;2.08;;;1.88;;
6979;SDS011;3530;52.832;10.680;2023-05-20T07:34:14;2.42;;;2.10;;
6979;SDS011;3530;52.832;10.680;2023-05-20T07:37:00;2.10;;;2.00;;
6979;SDS011;3530;52.832;10.680;2023-05-20T07:39:46;2.25;;;2.15;;
6979;SDS011;3530;52.832;10.680;2023-05-20T07:42:31;2.30;;;2.10;;
6979;SDS011;3530;52.832;10.680;2023-05-20T07:45:17;2.10;;;1.98;;
6979;SDS011;3530;52.832;10.680;2023-05-20T07:48:03;3.08;;;1.98;;
6979;SDS011;3530;52.832;10.680;2023-05-20T07:50:49;2.03;;;1.92;;
6979;SDS011;3530;52.832;10.680;2023-05-20T07:53:34;2.17;;;1.98;;
6979;SDS011;3530;52.832;10.680;2023-05-20T07:56:20;2.58;;;1.92;;
6979;SDS011;3530;52.832;10.680;2023-05-20T07:59:06;3.30;;;1.98;;
6979;SDS011;3530;52.832;10.680;2023-05-20T08:01:52;2.17;;;2.00;;
6979;SDS011;3530;52.832;10.680;2023-05-20T08:04:37;3.33;;;1.85;;
6979;SDS011;3530;52.832;10.680;2023-05-20T08:07:23;2.13;;;1.92;;
6979;SDS011;3530;52.832;10.680;2023-05-20T08:10:09;2.28;;;2.08;;
6979;SDS011;3530;52.832;10.680;2023-05-20T08:12:55;4.85;;;2.35;;
6979;SDS011;3530;52.832;10.680;2023-05-20T08:15:41;3.67;;;2.10;;
6979;SDS011;3530;52.832;10.680;2023-05-20T08:18:27;2.88;;;2.10;;
6979;SDS011;3530;52.832;10.680;2023-05-20T08:21:12;2.38;;;2.08;;
6979;SDS011;3530;52.832;10.680;2023-05-20T08:23:58;2.08;;;1.70;;
6979;SDS011;3530;52.832;10.680;2023-05-20T08:26:44;2.47;;;2.38;;
6979;SDS011;3530;52.832;10.680;2023-05-20T08:29:29;1.98;;;1.80;;
6979;SDS011;3530;52.832;10.680;2023-05-20T08:32:15;1.92;;;1.83;;
6979;SDS011;3530;52.832;10.680;2023-05-20T08:35:01;2.10;;;1.70;;
6979;SDS011;3530;52.832;10.680;2023-05-20T08:37:47;4.88;;;2.35;;
6979;SDS011;3530;52.832;10.680;2023-05-20T08:40:33;1.88;;;1.77;;
6979;SDS011;3530;52.832;10.680;2023-05-20T08:43:20;2.83;;;2.08;;
6979;SDS011;3530;52.832;10.680;2023-05-20T08:46:06;2.10;;;1.90;;
6979;SDS011;3530;52.832;10.680;2023-05-20T08:48:52;2.15;;;2.03;;
6979;SDS011;3530;52.832;10.680;2023-05-20T08:51:37;2.40;;;1.83;;
6979;SDS011;3530;52.832;10.680;2023-05-20T08:54:23;2.17;;;1.95;;
6979;SDS011;3530;52.832;10.680;2023-05-20T08:57:11;2.13;;;2.03;;
6979;SDS011;3530;52.832;10.680;2023-05-20T08:59:58;4.07;;;2.38;;
6979;SDS011;3530;52.832;10.680;2023-05-20T09:02:44;2.72;;;2.33;;
6979;SDS011;3530;52.832;10.680;2023-05-20T09:05:30;2.88;;;2.17;;
6979;SDS011;3530;52.832;10.680;2023-05-20T09:08:16;2.45;;;1.40;;
6979;SDS011;3530;52.832;10.680;2023-05-20T09:11:01;2.20;;;2.10;;
6979;SDS011;3530;52.832;10.680;2023-05-20T09:13:48;2.40;;;2.00;;
6979;SDS011;3530;52.832;10.680;2023-05-20T09:16:34;2.30;;;2.10;;
6979;SDS011;3530;52.832;10.680;2023-05-20T09:19:23;2.08;;;1.98;;
6979;SDS011;3530;52.832;10.680;2023-05-20T09:22:09;3.20;;;2.00;;
6979;SDS011;3530;52.832;10.680;2023-05-20T09:24:55;2.28;;;2.13;;
6979;SDS011;3530;52.832;10.680;2023-05-20T09:27:40;2.40;;;2.20;;
6979;SDS011;3530;52.832;10.680;2023-05-20T09:30:26;2.00;;;1.90;;
6979;SDS011;3530;52.832;10.680;2023-05-20T09:33:12;4.15;;;2.17;;
6979;SDS011;3530;52.832;10.680;2023-05-20T09:36:04;2.35;;;2.15;;
6979;SDS011;3530;52.832;10.680;2023-05-20T09:38:52;4.22;;;3.40;;
6979;SDS011;3530;52.832;10.680;2023-05-20T09:44:41;2.70;;;2.13;;
6979;SDS011;3530;52.832;10.680;2023-05-20T09:47:27;3.35;;;2.45;;
6979;SDS011;3530;52.832;10.680;2023-05-20T09:50:12;9.43;;;2.63;;
6979;SDS011;3530;52.832;10.680;2023-05-20T09:53:01;5.18;;;2.85;;
6979;SDS011;3530;52.832;10.680;2023-05-20T09:55:48;3.05;;;2.50;;
6979;SDS011;3530;52.832;10.680;2023-05-20T09:58:35;2.33;;;2.20;;
6979;SDS011;3530;52.832;10.680;2023-05-20T10:01:21;3.55;;;2.20;;
6979;SDS011;3530;52.832;10.680;2023-05-20T10:04:07;2.28;;;2.13;;
6979;SDS011;3530;52.832;10.680;2023-05-20T10:06:59;2.75;;;2.47;;
6979;SDS011;3530;52.832;10.680;2023-05-20T10:13:11;2.25;;;2.05;;
6979;SDS011;3530;52.832;10.680;2023-05-20T10:16:05;2.25;;;2.05;;
6979;SDS011;3530;52.832;10.680;2023-05-20T10:18:57;2.55;;;2.35;;
6979;SDS011;3530;52.832;10.680;2023-05-20T10:22:02;2.17;;;2.00;;
6979;SDS011;3530;52.832;10.680;2023-05-20T10:24:56;2.67;;;2.22;;
6979;SDS011;3530;52.832;10.680;2023-05-20T10:27:43;4.60;;;2.40;;
6979;SDS011;3530;52.832;10.680;2023-05-20T10:30:30;2.70;;;2.15;;
6979;SDS011;3530;52.832;10.680;2023-05-20T10:33:16;2.70;;;2.50;;
6979;SDS011;3530;52.832;10.680;2023-05-20T10:36:02;2.10;;;2.00;;
6979;SDS011;3530;52.832;10.680;2023-05-20T10:38:50;2.42;;;1.83;;
6979;SDS011;3530;52.832;10.680;2023-05-20T10:41:36;2.70;;;2.53;;
6979;SDS011;3530;52.832;10.680;2023-05-20T10:44:22;4.15;;;2.10;;
6979;SDS011;3530;52.832;10.680;2023-05-20T10:47:08;1.98;;;1.88;;
6979;SDS011;3530;52.832;10.680;2023-05-20T10:49:54;1.92;;;1.83;;
6979;SDS011;3530;52.832;10.680;2023-05-20T10:52:40;2.53;;;2.30;;
6979;SDS011;3530;52.832;10.680;2023-05-20T10:55:25;2.13;;;2.03;;
6979;SDS011;3530;52.832;10.680;2023-05-20T10:58:23;3.33;;;2.63;;
6979;SDS011;3530;52.832;10.680;2023-05-20T11:01:09;2.40;;;2.20;;
6979;SDS011;3530;52.832;10.680;2023-05-20T11:03:55;2.40;;;2.20;;
6979;SDS011;3530;52.832;10.680;2023-05-20T11:06:48;1.75;;;1.70;;
6979;SDS011;3530;52.832;10.680;2023-05-20T11:09:34;2.58;;;2.35;;
6979;SDS011;3530;52.832;10.680;2023-05-20T11:12:21;2.60;;;2.40;;
6979;SDS011;3530;52.832;10.680;2023-05-20T11:15:10;2.83;;;1.83;;
6979;SDS011;3530;52.832;10.680;2023-05-20T11:17:57;2.92;;;2.72;;
6979;SDS011;3530;52.832;10.680;2023-05-20T11:20:45;2.47;;;2.33;;
6979;SDS011;3530;52.832;10.680;2023-05-20T11:23:31;2.40;;;2.20;;
6979;SDS011;3530;52.832;10.680;2023-05-20T11:26:17;2.20;;;2.10;;
6979;SDS011;3530;52.832;10.680;2023-05-20T11:29:05;2.13;;;2.03;;
6979;SDS011;3530;52.832;10.680;2023-05-20T11:31:51;5.80;;;2.55;;
6979;SDS011;3530;52.832;10.680;2023-05-20T11:34:37;2.60;;;2.28;;
6979;SDS011;3530;52.832;10.680;2023-05-20T11:37:23;2.10;;;2.00;;
6979;SDS011;3530;52.832;10.680;2023-05-20T11:40:09;2.50;;;2.30;;
6979;SDS011;3530;52.832;10.680;2023-05-20T11:42:58;3.45;;;2.40;;
6979;SDS011;3530;52.832;10.680;2023-05-20T11:45:45;2.33;;;2.22;;
6979;SDS011;3530;52.832;10.680;2023-05-20T11:48:31;2.70;;;2.40;;
6979;SDS011;3530;52.832;10.680;2023-05-20T11:51:17;2.97;;;2.60;;
6979;SDS011;3530;52.832;10.680;2023-05-20T11:54:03;2.55;;;2.40;;
6979;SDS011;3530;52.832;10.680;2023-05-20T11:56:50;2.45;;;2.25;;
6979;SDS011;3530;52.832;10.680;2023-05-20T11:59:35;2.70;;;2.50;;
6979;SDS011;3530;52.832;10.680;2023-05-20T12:02:21;2.60;;;2.40;;
6979;SDS011;3530;52.832;10.680;2023-05-20T12:05:07;3.90;;;2.40;;
6979;SDS011;3530;52.832;10.680;2023-05-20T12:07:53;2.53;;;2.33;;
6979;SDS011;3530;52.832;10.680;2023-05-20T12:10:38;2.85;;;2.65;;
6979;SDS011;3530;52.832;10.680;2023-05-20T12:13:24;3.22;;;3.00;;
6979;SDS011;3530;52.832;10.680;2023-05-20T12:16:10;3.92;;;2.55;;
6979;SDS011;3530;52.832;10.680;2023-05-20T12:18:55;3.17;;;2.90;;
6979;SDS011;3530;52.832;10.680;2023-05-20T12:21:41;2.30;;;2.20;;
6979;SDS011;3530;52.832;10.680;2023-05-20T12:24:27;4.13;;;2.55;;
6979;SDS011;3530;52.832;10.680;2023-05-20T12:27:12;3.17;;;2.92;;
6979;SDS011;3530;52.832;10.680;2023-05-20T12:29:59;3.00;;;2.67;;
6979;SDS011;3530;52.832;10.680;2023-05-20T12:32:45;4.28;;;2.35;;
6979;SDS011;3530;52.832;10.680;2023-05-20T12:35:38;2.55;;;2.38;;
6979;SDS011;3530;52.832;10.680;2023-05-20T12:38:25;2.65;;;2.45;;
6979;SDS011;3530;52.832;10.680;2023-05-20T12:41:10;3.97;;;2.60;;
6979;SDS011;3530;52.832;10.680;2023-05-20T12:43:56;2.95;;;2.75;;
6979;SDS011;3530;52.832;10.680;2023-05-20T12:46:42;2.95;;;2.75;;
6979;SDS011;3530;52.832;10.680;2023-05-20T12:49:28;3.10;;;2.80;;
6979;SDS011;3530;52.832;10.680;2023-05-20T12:52:13;3.75;;;2.63;;
6979;SDS011;3530;52.832;10.680;2023-05-20T12:54:59;4.80;;;3.50;;
6979;SDS011;3530;52.832;10.680;2023-05-20T12:57:45;4.20;;;3.10;;
6979;SDS011;3530;52.832;10.680;2023-05-20T13:00:31;3.85;;;3.38;;
6979;SDS011;3530;52.832;10.680;2023-05-20T13:03:16;3.63;;;3.33;;
6979;SDS011;3530;52.832;10.680;2023-05-20T13:06:02;3.67;;;3.03;;
6979;SDS011;3530;52.832;10.680;2023-05-20T13:08:48;3.47;;;2.65;;
6979;SDS011;3530;52.832;10.680;2023-05-20T13:11:34;3.72;;;3.42;;
6979;SDS011;3530;52.832;10.680;2023-05-20T13:14:19;3.30;;;2.95;;
6979;SDS011;3530;52.832;10.680;2023-05-20T13:17:05;4.57;;;3.13;;
6979;SDS011;3530;52.832;10.680;2023-05-20T13:19:51;3.10;;;2.80;;
6979;SDS011;3530;52.832;10.680;2023-05-20T13:22:37;2.35;;;2.25;;
6979;SDS011;3530;52.832;10.680;2023-05-20T13:25:23;3.50;;;3.20;;
6979;SDS011;3530;52.832;10.680;2023-05-20T13:28:08;5.03;;;3.28;;
6979;SDS011;3530;52.832;10.680;2023-05-20T13:30:54;3.03;;;2.83;;
6979;SDS011;3530;52.832;10.680;2023-05-20T13:33:40;3.33;;;3.03;;
6979;SDS011;3530;52.832;10.680;2023-05-20T13:36:26;3.45;;;3.15;;
6979;SDS011;3530;52.832;10.680;2023-05-20T13:39:13;4.75;;;3.60;;
6979;SDS011;3530;52.832;10.680;2023-05-20T13:41:59;7.00;;;4.05;;
6979;SDS011;3530;52.832;10.680;2023-05-20T13:44:45;3.88;;;3.50;;
6979;SDS011;3530;52.832;10.680;2023-05-20T13:47:31;4.35;;;2.88;;
6979;SDS011;3530;52.832;10.680;2023-05-20T13:50:16;4.28;;;3.00;;
6979;SDS011;3530;52.832;10.680;2023-05-20T13:53:02;3.25;;;3.05;;
6979;SDS011;3530;52.832;10.680;2023-05-20T13:55:48;3.50;;;3.20;;
6979;SDS011;3530;52.832;10.680;2023-05-20T13:58:34;5.25;;;3.55;;
6979;SDS011;3530;52.832;10.680;2023-05-20T14:01:20;3.22;;;2.92;;
6979;SDS011;3530;52.832;10.680;2023-05-20T14:04:06;3.22;;;3.03;;
6979;SDS011;3530;52.832;10.680;2023-05-20T14:06:52;3.83;;;2.85;;
6979;SDS011;3530;52.832;10.680;2023-05-20T14:09:37;3.50;;;3.20;;
6979;SDS011;3530;52.832;10.680;2023-05-20T14:12:23;4.25;;;2.97;;
6979;SDS011;3530;52.832;10.680;2023-05-20T14:15:09;3.53;;;3.05;;
6979;SDS011;3530;52.832;10.680;2023-05-20T14:17:58;5.82;;;3.22;;
6979;SDS011;3530;52.832;10.680;2023-05-20T14:20:44;4.15;;;3.10;;
6979;SDS011;3530;52.832;10.680;2023-05-20T14:23:29;8.10;;;3.60;;
6979;SDS011;3530;52.832;10.680;2023-05-20T14:26:15;2.80;;;2.60;;
6979;SDS011;3530;52.832;10.680;2023-05-20T14:29:01;3.80;;;3.40;;
6979;SDS011;3530;52.832;10.680;2023-05-20T14:31:46;3.03;;;2.80;;
6979;SDS011;3530;52.832;10.680;2023-05-20T14:34:32;3.38;;;3.08;;
6979;SDS011;3530;52.832;10.680;2023-05-20T14:37:18;3.35;;;3.15;;
6979;SDS011;3530;52.832;10.680;2023-05-20T14:40:04;7.22;;;3.78;;
6979;SDS011;3530;52.832;10.680;2023-05-20T14:42:51;3.38;;;3.08;;
6979;SDS011;3530;52.832;10.680;2023-05-20T14:45:37;3.63;;;2.78;;
6979;SDS011;3530;52.832;10.680;2023-05-20T14:48:22;3.72;;;3.35;;
6979;SDS011;3530;52.832;10.680;2023-05-20T14:51:08;3.40;;;3.10;;
6979;SDS011;3530;52.832;10.680;2023-05-20T14:53:54;3.13;;;2.83;;
6979;SDS011;3530;52.832;10.680;2023-05-20T14:56:40;2.92;;;2.60;;
6979;SDS011;3530;52.832;10.680;2023-05-20T14:59:26;3.88;;;2.50;;
6979;SDS011;3530;52.832;10.680;2023-05-20T15:02:12;3.17;;;2.85;;
6979;SDS011;3530;52.832;10.680;2023-05-20T15:04:57;2.67;;;2.47;;
6979;SDS011;3530;52.832;10.680;2023-05-20T15:07:43;2.45;;;2.13;;
6979;SDS011;3530;52.832;10.680;2023-05-20T15:10:29;4.82;;;2.78;;
6979;SDS011;3530;52.832;10.680;2023-05-20T15:13:15;5.25;;;2.80;;
6979;SDS011;3530;52.832;10.680;2023-05-20T15:16:00;3.45;;;3.13;;
6979;SDS011;3530;52.832;10.680;2023-05-20T15:18:46;3.28;;;2.97;;
6979;SDS011;3530;52.832;10.680;2023-05-20T15:21:32;3.22;;;2.92;;
6979;SDS011;3530;52.832;10.680;2023-05-20T15:24:17;2.65;;;2.50;;
6979;SDS011;3530;52.832;10.680;2023-05-20T15:27:03;2.60;;;2.40;;
6979;SDS011;3530;52.832;10.680;2023-05-20T15:29:48;2.95;;;2.65;;
6979;SDS011;3530;52.832;10.680;2023-05-20T15:32:34;2.53;;;2.33;;
6979;SDS011;3530;52.832;10.680;2023-05-20T15:35:20;3.08;;;2.88;;
6979;SDS011;3530;52.832;10.680;2023-05-20T15:38:05;3.05;;;2.85;;
6979;SDS011;3530;52.832;10.680;2023-05-20T15:40:51;3.78;;;3.35;;
6979;SDS011;3530;52.832;10.680;2023-05-20T15:43:37;3.78;;;3.22;;
6979;SDS011;3530;52.832;10.680;2023-05-20T15:46:23;4.78;;;4.18;;
6979;SDS011;3530;52.832;10.680;2023-05-20T15:49:09;4.60;;;2.75;;
6979;SDS011;3530;52.832;10.680;2023-05-20T15:51:55;2.55;;;2.35;;
6979;SDS011;3530;52.832;10.680;2023-05-20T15:54:41;2.83;;;2.60;;
6979;SDS011;3530;52.832;10.680;2023-05-20T15:57:27;4.22;;;3.17;;
6979;SDS011;3530;52.832;10.680;2023-05-20T16:00:14;2.78;;;2.58;;
6979;SDS011;3530;52.832;10.680;2023-05-20T16:03:02;3.08;;;2.88;;
6979;SDS011;3530;52.832;10.680;2023-05-20T16:05:48;3.70;;;3.40;;
6979;SDS011;3530;52.832;10.680;2023-05-20T16:08:34;3.10;;;2.60;;
6979;SDS011;3530;52.832;10.680;2023-05-20T16:11:21;3.35;;;3.15;;
6979;SDS011;3530;52.832;10.680;2023-05-20T16:14:07;2.88;;;2.70;;
6979;SDS011;3530;52.832;10.680;2023-05-20T16:16:53;3.50;;;2.80;;
6979;SDS011;3530;52.832;10.680;2023-05-20T16:19:39;3.28;;;3.00;;
6979;SDS011;3530;52.832;10.680;2023-05-20T16:22:24;4.00;;;3.25;;
6979;SDS011;3530;52.832;10.680;2023-05-20T16:25:10;3.10;;;2.90;;
6979;SDS011;3530;52.832;10.680;2023-05-20T16:27:56;2.75;;;2.58;;
6979;SDS011;3530;52.832;10.680;2023-05-20T16:30:42;3.35;;;3.10;;
6979;SDS011;3530;52.832;10.680;2023-05-20T16:33:28;3.88;;;3.40;;
6979;SDS011;3530;52.832;10.680;2023-05-20T16:36:14;3.35;;;2.90;;
6979;SDS011;3530;52.832;10.680;2023-05-20T16:38:59;4.63;;;3.40;;
6979;SDS011;3530;52.832;10.680;2023-05-20T16:41:45;5.07;;;3.45;;
6979;SDS011;3530;52.832;10.680;2023-05-20T16:44:31;6.15;;;3.33;;
6979;SDS011;3530;52.832;10.680;2023-05-20T16:47:16;3.63;;;3.33;;
6979;SDS011;3530;52.832;10.680;2023-05-20T16:50:02;4.32;;;3.22;;
6979;SDS011;3530;52.832;10.680;2023-05-20T16:52:48;3.67;;;3.05;;
6979;SDS011;3530;52.832;10.680;2023-05-20T16:55:34;3.63;;;3.25;;
6979;SDS011;3530;52.832;10.680;2023-05-20T16:58:20;4.68;;;3.50;;
6979;SDS011;3530;52.832;10.680;2023-05-20T17:01:05;3.38;;;3.05;;